createdAt,value
2022-11-04T00:02:07.836Z,14.60
2022-11-04T00:04:34.849Z,14.60
2022-11-04T00:07:01.482Z,14.60
2022-11-04T00:09:30.186Z,14.60
2022-11-04T00:12:16.193Z,14.50
2022-11-04T00:14:42.929Z,14.50
2022-11-04T00:17:21.178Z,14.50
2022-11-04T00:20:12.409Z,14.40
2022-11-04T00:23:00.107Z,14.40
2022-11-04T00:25:46.101Z,14.40
2022-11-04T00:28:36.460Z,14.30
2022-11-04T00:31:24.463Z,14.30
2022-11-04T00:33:53.419Z,14.20
2022-11-04T00:36:20.840Z,14.20
2022-11-04T00:38:47.569Z,14.20
2022-11-04T00:41:27.423Z,14.20
2022-11-04T00:43:55.538Z,14.10
2022-11-04T00:46:22.629Z,14.10
2022-11-04T00:48:49.671Z,14.10
2022-11-04T00:51:16.891Z,14.10
2022-11-04T00:53:43.558Z,14.10
2022-11-04T00:56:10.402Z,14.10
2022-11-04T00:58:37.211Z,14.00
2022-11-04T01:01:12.435Z,14.00
2022-11-04T01:03:39.276Z,14.00
2022-11-04T01:06:06.414Z,14.00
2022-11-04T01:08:33.356Z,14.00
2022-11-04T01:11:05.044Z,14.00
2022-11-04T01:13:32.134Z,14.00
2022-11-04T01:16:03.625Z,14.00
2022-11-04T01:18:30.461Z,13.90
2022-11-04T01:21:04.595Z,13.90
2022-11-04T01:23:31.407Z,13.90
2022-11-04T01:25:58.152Z,13.90
2022-11-04T01:28:24.760Z,13.90
2022-11-04T01:30:51.464Z,13.90
2022-11-04T01:33:18.229Z,13.80
2022-11-04T01:35:45.064Z,13.80
2022-11-04T01:38:11.963Z,13.80
2022-11-04T01:40:40.665Z,13.80
2022-11-04T01:43:21.708Z,13.70
2022-11-04T01:45:58.669Z,13.80
2022-11-04T01:48:33.972Z,13.80
2022-11-04T01:51:00.903Z,13.70
2022-11-04T01:53:37.636Z,13.70
2022-11-04T01:56:12.240Z,13.70
2022-11-04T01:58:47.170Z,13.70
2022-11-04T02:01:14.411Z,13.60
2022-11-04T02:03:54.291Z,13.60
2022-11-04T02:06:22.856Z,13.60
2022-11-04T02:08:49.440Z,13.50
2022-11-04T02:11:36.980Z,13.50
2022-11-04T02:14:03.663Z,13.40
2022-11-04T02:16:45.263Z,13.40
2022-11-04T02:19:48.267Z,13.30
2022-11-04T02:22:27.080Z,13.20
2022-11-04T02:25:13.975Z,13.20
2022-11-04T02:27:52.435Z,13.10
2022-11-04T02:30:20.858Z,13.10
2022-11-04T02:33:06.878Z,13.10
2022-11-04T02:35:58.285Z,13.00
2022-11-04T02:38:37.639Z,13.00
2022-11-04T02:41:17.038Z,12.90
2022-11-04T02:44:10.836Z,12.90
2022-11-04T02:46:51.642Z,12.80
2022-11-04T02:49:28.576Z,12.70
2022-11-04T02:52:10.424Z,12.70
2022-11-04T02:54:56.512Z,12.70
2022-11-04T02:57:28.174Z,12.60
2022-11-04T03:00:03.453Z,12.60
2022-11-04T03:02:45.351Z,12.50
2022-11-04T03:05:17.774Z,12.50
2022-11-04T03:07:46.759Z,12.50
2022-11-04T03:10:19.054Z,12.40
2022-11-04T03:12:52.256Z,12.40
2022-11-04T03:15:31.567Z,12.30
2022-11-04T03:18:24.587Z,12.30
2022-11-04T03:20:52.899Z,12.30
2022-11-04T03:23:19.746Z,12.30
2022-11-04T03:25:50.112Z,12.20
2022-11-04T03:28:16.712Z,12.20
2022-11-04T03:30:49.795Z,12.20
2022-11-04T03:33:24.642Z,12.20
2022-11-04T03:35:52.099Z,12.10
2022-11-04T03:38:21.802Z,12.10
2022-11-04T03:40:49.143Z,12.10
2022-11-04T03:43:21.508Z,12.10
2022-11-04T03:45:50.210Z,12.10
2022-11-04T03:48:17.247Z,12.00
2022-11-04T03:50:47.685Z,12.00
2022-11-04T03:53:18.082Z,12.00
2022-11-04T03:55:50.883Z,12.00
2022-11-04T03:58:58.424Z,12.00
2022-11-04T04:01:50.072Z,11.90
2022-11-04T04:04:33.967Z,11.90
2022-11-04T04:07:16.278Z,11.90
2022-11-04T04:09:59.326Z,11.80
2022-11-04T04:12:36.758Z,11.70
2022-11-04T04:15:22.550Z,11.70
2022-11-04T04:17:55.762Z,11.70
2022-11-04T04:20:28.955Z,11.60
2022-11-04T04:23:35.082Z,11.50
2022-11-04T04:26:25.266Z,11.40
2022-11-04T04:28:55.677Z,11.30
2022-11-04T04:31:44.080Z,11.30
2022-11-04T04:34:11.189Z,11.20
2022-11-04T04:37:05.139Z,11.20
2022-11-04T04:40:01.488Z,11.20
2022-11-04T04:42:51.552Z,11.10
2022-11-04T04:45:34.689Z,11.00
2022-11-04T04:48:01.638Z,11.00
2022-11-04T04:50:37.124Z,11.00
2022-11-04T04:53:04.282Z,10.90
2022-11-04T04:55:38.833Z,10.90
2022-11-04T04:58:08.448Z,10.80
2022-11-04T05:00:35.429Z,10.80
2022-11-04T05:03:02.127Z,10.80
2022-11-04T05:05:29.165Z,10.80
2022-11-04T05:07:55.846Z,10.70
2022-11-04T05:10:22.736Z,10.70
2022-11-04T05:13:08.112Z,10.70
2022-11-04T05:15:35.103Z,10.70
2022-11-04T05:18:03.252Z,10.70
2022-11-04T05:20:30.511Z,10.70
2022-11-04T05:22:57.292Z,10.70
2022-11-04T05:25:25.275Z,10.70
2022-11-04T05:27:51.927Z,10.70
2022-11-04T05:30:18.639Z,10.70
2022-11-04T05:32:45.832Z,10.70
2022-11-04T05:35:12.467Z,10.70
2022-11-04T05:37:40.508Z,10.70
2022-11-04T05:40:07.673Z,10.60
2022-11-04T05:42:37.233Z,10.60
2022-11-04T05:45:04.852Z,10.50
2022-11-04T05:47:31.694Z,10.50
2022-11-04T05:49:58.373Z,10.40
2022-11-04T05:52:25.144Z,10.40
2022-11-04T05:54:51.999Z,10.40
2022-11-04T05:57:18.579Z,10.30
2022-11-04T05:59:45.494Z,10.30
2022-11-04T06:02:12.282Z,10.30
2022-11-04T06:04:39.021Z,10.20
2022-11-04T06:07:05.801Z,10.20
2022-11-04T06:09:41.646Z,10.20
2022-11-04T06:12:15.805Z,10.10
2022-11-04T06:14:43.501Z,10.10
2022-11-04T06:17:19.104Z,10.00
2022-11-04T06:19:45.892Z,10.00
2022-11-04T06:22:14.438Z,10.00
2022-11-04T06:24:41.591Z,9.90
2022-11-04T06:27:08.703Z,9.90
2022-11-04T06:29:40.987Z,9.90
2022-11-04T06:32:13.125Z,9.90
2022-11-04T06:34:40.401Z,9.90
2022-11-04T06:37:07.375Z,9.80
2022-11-04T06:39:34.279Z,9.80
2022-11-04T06:42:02.560Z,9.80
2022-11-04T06:44:29.652Z,9.80
2022-11-04T06:46:56.471Z,9.80
2022-11-04T06:49:23.507Z,9.80
2022-11-04T06:51:50.445Z,9.80
2022-11-04T06:54:17.799Z,9.80
2022-11-04T06:56:45.136Z,9.80
2022-11-04T06:59:19.849Z,9.80
2022-11-04T07:01:47.502Z,9.80
2022-11-04T07:04:14.426Z,9.80
2022-11-04T07:06:44.970Z,9.80
2022-11-04T07:09:14.013Z,9.80
2022-11-04T07:11:42.000Z,9.80
2022-11-04T07:14:09.738Z,9.90
2022-11-04T07:16:36.347Z,9.90
2022-11-04T07:19:03.595Z,9.90
2022-11-04T07:21:30.524Z,9.90
2022-11-04T07:23:57.733Z,9.90
2022-11-04T07:26:24.545Z,10.00
2022-11-04T07:28:51.193Z,10.00
2022-11-04T07:31:18.466Z,10.00
2022-11-04T07:33:49.747Z,10.00
2022-11-04T07:36:17.576Z,10.10
2022-11-04T07:38:44.677Z,10.10
2022-11-04T07:41:12.334Z,10.10
2022-11-04T07:43:39.271Z,10.10
2022-11-04T07:46:10.098Z,10.10
2022-11-04T07:48:37.456Z,10.10
2022-11-04T07:51:06.183Z,10.10
2022-11-04T07:53:33.415Z,10.10
2022-11-04T07:56:07.218Z,10.10
2022-11-04T07:58:34.751Z,10.10
2022-11-04T08:01:04.069Z,10.10
2022-11-04T08:03:30.935Z,10.10
2022-11-04T08:05:59.888Z,10.30
2022-11-04T08:08:27.884Z,10.40
2022-11-04T08:11:00.357Z,10.40
2022-11-04T08:13:29.068Z,10.50
2022-11-04T08:15:56.258Z,10.60
2022-11-04T08:18:23.560Z,10.70
2022-11-04T08:20:51.286Z,10.70
2022-11-04T08:23:18.642Z,10.80
2022-11-04T08:25:46.134Z,10.90
2022-11-04T08:28:17.230Z,11.00
2022-11-04T08:31:13.119Z,11.10
2022-11-04T08:33:40.795Z,11.20
2022-11-04T08:36:16.894Z,11.30
2022-11-04T08:38:44.035Z,11.40
2022-11-04T08:41:11.621Z,11.50
2022-11-04T08:43:39.181Z,11.80
2022-11-04T08:46:08.370Z,12.30
2022-11-04T08:48:36.600Z,12.90
2022-11-04T08:51:04.228Z,13.70
2022-11-04T08:53:30.865Z,14.70
2022-11-04T08:55:57.580Z,15.60
2022-11-04T08:58:24.860Z,16.60
2022-11-04T09:00:52.516Z,17.30
2022-11-04T09:03:19.218Z,17.80
2022-11-04T09:05:47.520Z,18.10
2022-11-04T09:08:18.037Z,18.50
2022-11-04T09:10:46.859Z,19.00
2022-11-04T09:13:15.892Z,19.40
2022-11-04T09:15:43.228Z,19.70
2022-11-04T09:18:10.291Z,20.00
2022-11-04T09:20:39.827Z,20.10
2022-11-04T09:23:07.216Z,20.30
2022-11-04T09:25:35.412Z,20.60
2022-11-04T09:28:02.237Z,20.90
2022-11-04T09:30:28.909Z,21.20
2022-11-04T09:32:55.706Z,21.60
2022-11-04T09:35:22.627Z,22.00
2022-11-04T09:37:50.713Z,22.60
2022-11-04T09:40:21.511Z,23.20
2022-11-04T09:43:07.392Z,23.80
2022-11-04T09:45:35.000Z,24.30
2022-11-04T09:48:09.067Z,24.50
2022-11-04T09:50:49.516Z,24.70
2022-11-04T09:53:22.716Z,24.80
2022-11-04T09:56:02.846Z,24.80
2022-11-04T09:58:36.732Z,24.70
2022-11-04T10:01:18.611Z,24.50
2022-11-04T10:04:08.604Z,24.40
2022-11-04T10:06:58.749Z,24.60
2022-11-04T10:09:59.303Z,24.90
2022-11-04T10:12:47.443Z,25.50
2022-11-04T10:15:48.837Z,26.10
2022-11-04T10:18:30.548Z,26.70
2022-11-04T10:21:34.300Z,26.70
2022-11-04T10:24:36.262Z,26.40
2022-11-04T10:27:17.442Z,25.90
2022-11-04T10:29:58.057Z,25.30
2022-11-04T10:32:46.137Z,24.80
2022-11-04T10:35:28.412Z,24.20
2022-11-04T10:37:55.571Z,23.60
2022-11-04T10:40:29.442Z,23.10
2022-11-04T10:43:00.156Z,22.60
2022-11-04T10:45:35.019Z,22.20
2022-11-04T10:48:09.572Z,21.90
2022-11-04T10:50:46.656Z,21.60
2022-11-04T10:53:23.650Z,21.40
2022-11-04T10:56:19.488Z,21.10
2022-11-04T10:58:47.591Z,20.90
2022-11-04T11:01:34.090Z,20.60
2022-11-04T11:04:05.840Z,20.40
2022-11-04T11:06:35.927Z,20.10
2022-11-04T11:09:19.431Z,19.90
2022-11-04T11:11:51.247Z,19.50
2022-11-04T11:14:21.497Z,19.20
2022-11-04T11:16:48.220Z,19.00
2022-11-04T11:19:17.610Z,18.80
2022-11-04T11:21:52.743Z,18.70
2022-11-04T11:24:19.392Z,18.50
2022-11-04T11:26:49.616Z,18.40
2022-11-04T11:29:24.105Z,18.40
2022-11-04T11:31:52.400Z,18.30
2022-11-04T11:34:32.411Z,18.20
2022-11-04T11:37:03.048Z,18.20
2022-11-04T11:39:32.294Z,18.10
2022-11-04T11:42:06.428Z,18.00
2022-11-04T11:44:48.360Z,17.90
2022-11-04T11:47:20.273Z,17.80
2022-11-04T11:50:03.562Z,17.80
2022-11-04T11:52:30.153Z,17.80
2022-11-04T11:55:07.590Z,17.90
2022-11-04T11:57:45.190Z,18.10
2022-11-04T12:03:18.183Z,19.20
2022-11-04T12:06:18.966Z,20.00
2022-11-04T12:12:06.556Z,21.70
2022-11-04T12:14:51.222Z,22.40
2022-11-04T12:17:37.104Z,22.80
2022-11-04T12:20:20.137Z,23.00
2022-11-04T12:22:47.043Z,22.90
2022-11-04T12:25:35.576Z,22.80
2022-11-04T12:28:11.306Z,22.60
2022-11-04T12:30:58.660Z,22.30
2022-11-04T12:33:34.938Z,21.90
2022-11-04T12:36:23.928Z,21.60
2022-11-04T12:39:19.881Z,21.20
2022-11-04T12:42:20.556Z,20.90
2022-11-04T12:45:03.621Z,20.60
2022-11-04T12:47:45.804Z,20.40
2022-11-04T12:50:38.220Z,20.20
2022-11-04T12:53:16.846Z,20.00
2022-11-04T12:55:55.284Z,19.80
2022-11-04T12:58:41.868Z,19.60
2022-11-04T13:01:42.846Z,19.40
2022-11-04T13:04:16.801Z,19.20
2022-11-04T13:06:56.528Z,19.10
2022-11-04T13:09:37.672Z,18.90
2022-11-04T13:12:11.664Z,18.80
2022-11-04T13:14:54.901Z,18.60
2022-11-04T13:17:33.321Z,18.50
2022-11-04T13:20:27.556Z,18.40
2022-11-04T13:23:02.954Z,18.30
2022-11-04T13:25:45.992Z,18.20
2022-11-04T13:28:16.692Z,18.10
2022-11-04T13:31:00.874Z,18.00
2022-11-04T13:33:51.680Z,17.90
2022-11-04T13:36:27.583Z,17.80
2022-11-04T13:39:08.800Z,17.70
2022-11-04T13:41:57.190Z,17.70
2022-11-04T13:44:30.733Z,17.60
2022-11-04T13:47:03.933Z,17.50
2022-11-04T13:49:33.933Z,17.50
2022-11-04T13:52:11.356Z,17.40
2022-11-04T13:54:55.526Z,17.40
2022-11-04T13:57:25.050Z,17.30
2022-11-04T14:00:16.786Z,17.20
2022-11-04T14:02:45.605Z,17.10
2022-11-04T14:05:41.423Z,17.10
2022-11-04T14:08:09.994Z,17.00
2022-11-04T14:10:39.247Z,16.90
2022-11-04T14:13:24.829Z,16.90
2022-11-04T14:16:17.711Z,16.80
2022-11-04T14:18:47.404Z,16.80
2022-11-04T14:21:23.405Z,16.80
2022-11-04T14:23:51.982Z,16.80
2022-11-04T14:26:22.468Z,16.80
2022-11-04T14:29:16.267Z,16.80
2022-11-04T14:31:47.178Z,16.70
2022-11-04T14:34:27.316Z,16.70
2022-11-04T14:36:58.650Z,16.60
2022-11-04T14:39:32.799Z,16.50
2022-11-04T14:42:04.123Z,16.40
2022-11-04T14:44:42.128Z,16.30
2022-11-04T14:47:18.369Z,16.20
2022-11-04T14:49:59.709Z,16.20
2022-11-04T14:52:30.386Z,16.10
2022-11-04T14:55:13.088Z,16.10
2022-11-04T14:57:45.725Z,16.00
2022-11-04T15:00:25.502Z,16.00
2022-11-04T15:03:04.281Z,15.90
2022-11-04T15:05:33.565Z,15.90
2022-11-04T15:08:00.198Z,15.80
2022-11-04T15:10:28.640Z,15.80
2022-11-04T15:13:01.502Z,15.80
2022-11-04T15:15:36.147Z,15.70
2022-11-04T15:18:09.727Z,15.70
2022-11-04T15:20:41.278Z,15.70
2022-11-04T15:23:14.287Z,15.60
2022-11-04T15:25:50.248Z,15.60
2022-11-04T15:28:23.149Z,15.60
2022-11-04T15:31:25.097Z,15.50
2022-11-04T15:33:55.836Z,15.40
2022-11-04T15:36:29.704Z,15.40
2022-11-04T15:39:07.748Z,15.30
2022-11-04T15:41:55.957Z,15.30
2022-11-04T15:44:32.434Z,15.20
2022-11-04T15:47:20.099Z,15.20
2022-11-04T15:49:48.755Z,15.10
2022-11-04T15:52:27.095Z,15.10
2022-11-04T15:54:57.884Z,15.10
2022-11-04T15:57:38.835Z,15.00
2022-11-04T16:00:17.468Z,15.00
2022-11-04T16:02:50.284Z,15.00
2022-11-04T16:05:19.747Z,15.00
2022-11-04T16:07:48.946Z,14.90
2022-11-04T16:10:30.325Z,14.90
2022-11-04T16:12:58.363Z,14.90
2022-11-04T16:15:31.900Z,14.90
2022-11-04T16:17:58.908Z,14.80
2022-11-04T16:20:25.795Z,14.80
2022-11-04T16:22:57.576Z,14.80
2022-11-04T16:25:25.993Z,14.70
2022-11-04T16:27:52.725Z,14.70
2022-11-04T16:30:21.619Z,14.70
2022-11-04T16:32:56.740Z,14.70
2022-11-04T16:35:28.277Z,14.70
2022-11-04T16:37:56.051Z,14.60
2022-11-04T16:40:24.391Z,14.60
2022-11-04T16:42:52.518Z,14.50
2022-11-04T16:45:32.514Z,14.50
2022-11-04T16:47:59.508Z,14.50
2022-11-04T16:50:26.830Z,14.50
2022-11-04T16:52:53.868Z,14.50
2022-11-04T16:55:23.531Z,14.40
2022-11-04T16:57:56.533Z,14.40
2022-11-04T17:00:25.819Z,14.40
2022-11-04T17:02:52.939Z,14.40
2022-11-04T17:05:20.606Z,14.40
2022-11-04T17:07:53.557Z,14.40
2022-11-04T17:10:27.459Z,14.30
2022-11-04T17:12:54.439Z,14.30
2022-11-04T17:15:21.434Z,14.20
2022-11-04T17:17:48.229Z,14.20
2022-11-04T17:20:17.517Z,14.10
2022-11-04T17:22:45.041Z,14.10
2022-11-04T17:25:21.065Z,14.10
2022-11-04T17:27:48.546Z,14.00
2022-11-04T17:30:16.918Z,14.00
2022-11-04T17:32:45.252Z,14.00
2022-11-04T17:35:13.045Z,14.00
2022-11-04T17:37:40.189Z,14.00
2022-11-04T17:40:08.881Z,13.90
2022-11-04T17:42:53.960Z,13.90
2022-11-04T17:45:20.756Z,13.90
2022-11-04T17:47:47.475Z,13.80
2022-11-04T17:50:14.244Z,13.80
2022-11-04T17:52:42.276Z,13.80
2022-11-04T17:55:15.408Z,13.80
2022-11-04T17:57:43.224Z,13.80
2022-11-04T18:00:10.679Z,13.70
2022-11-04T18:02:37.597Z,13.70
2022-11-04T18:05:04.732Z,13.60
2022-11-04T18:07:31.360Z,13.60
2022-11-04T18:09:58.142Z,13.60
2022-11-04T18:12:36.959Z,13.60
2022-11-04T18:15:12.641Z,13.60
2022-11-04T18:17:40.527Z,13.60
2022-11-04T18:20:13.606Z,13.50
2022-11-04T18:22:41.980Z,13.50
2022-11-04T18:25:09.789Z,13.50
2022-11-04T18:27:36.828Z,13.50
2022-11-04T18:30:03.785Z,13.50
2022-11-04T18:32:30.489Z,13.50
2022-11-04T18:34:57.580Z,13.50
2022-11-04T18:37:25.458Z,13.50
2022-11-04T18:39:52.242Z,13.50
2022-11-04T18:42:18.905Z,13.50
2022-11-04T18:44:45.703Z,13.50
2022-11-04T18:47:14.077Z,13.50
2022-11-04T18:49:41.005Z,13.50
2022-11-04T18:52:07.662Z,13.50
2022-11-04T18:54:34.497Z,13.50
2022-11-04T18:57:01.187Z,13.50
2022-11-04T18:59:27.874Z,13.40
2022-11-04T19:01:54.745Z,13.50
2022-11-04T19:04:21.553Z,13.40
2022-11-04T19:06:48.469Z,13.40
2022-11-04T19:09:45.658Z,13.50
2022-11-04T19:12:22.042Z,13.40
2022-11-04T19:14:49.055Z,13.50
2022-11-04T19:17:15.964Z,13.40
2022-11-04T19:19:42.932Z,13.40
2022-11-04T19:22:10.430Z,13.40
2022-11-04T19:24:37.639Z,13.40
2022-11-04T19:27:04.880Z,13.40
2022-11-04T19:29:32.913Z,13.40
2022-11-04T19:32:00.523Z,13.40
2022-11-04T19:34:27.344Z,13.40
2022-11-04T19:36:54.162Z,13.30
2022-11-04T19:39:20.844Z,13.40
2022-11-04T19:42:06.384Z,13.30
2022-11-04T19:44:33.152Z,13.30
2022-11-04T19:46:59.803Z,13.30
2022-11-04T19:49:30.992Z,13.30
2022-11-04T19:51:58.778Z,13.30
2022-11-04T19:54:25.616Z,13.30
2022-11-04T19:56:52.721Z,13.30
2022-11-04T19:59:19.570Z,13.30
2022-11-04T20:01:46.412Z,13.20
2022-11-04T20:04:13.359Z,13.20
2022-11-04T20:06:40.354Z,13.30
2022-11-04T20:09:10.799Z,13.20
2022-11-04T20:11:58.916Z,13.20
2022-11-04T20:14:26.466Z,13.30
2022-11-04T20:16:53.191Z,13.20
2022-11-04T20:19:22.847Z,13.20
2022-11-04T20:21:50.179Z,13.20
2022-11-04T20:24:16.960Z,13.10
2022-11-04T20:26:44.216Z,13.20
2022-11-04T20:29:12.076Z,13.10
2022-11-04T20:31:39.722Z,13.10
2022-11-04T20:34:08.124Z,13.10
2022-11-04T20:36:36.560Z,13.10
2022-11-04T20:39:10.064Z,13.10
2022-11-04T20:41:36.728Z,13.00
2022-11-04T20:44:04.069Z,13.00
2022-11-04T20:46:33.983Z,13.00
2022-11-04T20:49:04.675Z,13.00
2022-11-04T20:51:36.939Z,13.00
2022-11-04T20:54:06.792Z,12.90
2022-11-04T20:56:37.875Z,12.90
2022-11-04T20:59:06.343Z,12.90
2022-11-04T21:01:35.242Z,12.90
2022-11-04T21:04:08.398Z,12.90
2022-11-04T21:06:37.637Z,12.90
2022-11-04T21:09:06.056Z,12.90
2022-11-04T21:11:34.620Z,12.90
2022-11-04T21:14:02.296Z,12.90
2022-11-04T21:16:30.283Z,12.90
2022-11-04T21:18:57.965Z,12.90
2022-11-04T21:21:27.829Z,12.90
2022-11-04T21:24:02.920Z,12.90
2022-11-04T21:26:32.752Z,12.90
2022-11-04T21:29:01.887Z,12.90
2022-11-04T21:31:30.958Z,12.90
2022-11-04T21:33:58.157Z,12.90
2022-11-04T21:36:25.551Z,12.90
2022-11-04T21:38:52.383Z,12.90
2022-11-04T21:41:25.884Z,12.90
2022-11-04T21:44:01.218Z,12.90
2022-11-04T21:46:30.542Z,12.90
2022-11-04T21:48:57.379Z,13.00
2022-11-04T21:51:26.365Z,13.00
2022-11-04T21:53:53.052Z,13.00
2022-11-04T21:56:31.269Z,13.00
2022-11-04T21:58:58.056Z,13.00
2022-11-04T22:01:29.862Z,13.00
2022-11-04T22:03:59.322Z,13.00
2022-11-04T22:06:33.218Z,13.00
2022-11-04T22:09:01.104Z,13.00
2022-11-04T22:11:30.452Z,13.00
2022-11-04T22:14:02.652Z,13.00
2022-11-04T22:16:32.015Z,13.00
2022-11-04T22:19:01.715Z,13.10
2022-11-04T22:21:30.285Z,13.10
2022-11-04T22:23:57.031Z,13.10
2022-11-04T22:26:29.793Z,13.10
2022-11-04T22:28:57.856Z,13.10
2022-11-04T22:31:33.608Z,13.00
2022-11-04T22:34:01.645Z,13.00
2022-11-04T22:36:30.379Z,13.00
2022-11-04T22:39:00.210Z,13.00
2022-11-04T22:41:30.978Z,13.00
2022-11-04T22:43:58.013Z,13.00
2022-11-04T22:46:30.240Z,13.00
2022-11-04T22:48:59.475Z,13.00
2022-11-04T22:51:26.423Z,13.10
2022-11-04T22:53:57.901Z,13.10
2022-11-04T22:56:27.282Z,13.10
2022-11-04T22:58:54.543Z,13.10
2022-11-04T23:01:22.165Z,13.10
2022-11-04T23:03:50.584Z,13.10
2022-11-04T23:06:17.219Z,13.10
2022-11-04T23:08:45.228Z,13.10
2022-11-04T23:11:40.802Z,13.10
2022-11-04T23:14:30.884Z,13.10
2022-11-04T23:17:17.015Z,13.10
2022-11-04T23:19:44.361Z,13.10
2022-11-04T23:22:29.440Z,13.10
2022-11-04T23:25:11.354Z,13.10
2022-11-04T23:28:08.151Z,13.10
2022-11-04T23:30:43.298Z,13.10
2022-11-04T23:33:12.726Z,13.10
2022-11-04T23:36:00.364Z,13.10
2022-11-04T23:38:29.261Z,13.10
2022-11-04T23:41:17.950Z,13.10
2022-11-04T23:43:45.138Z,13.10
2022-11-04T23:46:30.546Z,13.10
2022-11-04T23:49:16.472Z,13.10
2022-11-04T23:52:01.862Z,13.10
2022-11-04T23:54:47.457Z,13.10
2022-11-04T23:57:34.905Z,13.00
